Santo Antonio da Platina, Brazil
Current Conditions -  °F | °C
As of 6:21 AM on Wednesday 26 Nov 2014 (Local Time) from SBLO Reporting Station
Moderate Fog Moderate Fog  
Wind Chill: 68°   Ceiling: 4500
Heat Index: 68°   Visibility: 0.37mi
Dew Point: 68°   Wind: 2mph
Humidity: 100%   Direction: 180°S
Pressure: 29.8"   Gusts: NA
Location:  23.3°S, 50.08°W
Report Text: SBLO 260821Z 18002KT 0600 FG SCT003 BKN045 20/20 Q1009
Loading
Personal Weather Stations






























Interactive Weather Map New forecast layout! Learn more

10-Day Weather Forecast

Advertisements
Track Severe Weather on mobile